Weather at Habonim Airfield

Public forecast

Using degrees Celsius for public forecast. Weather courtesy of forecast.io.

Closest aviation weather report (METAR) to Habonim Airfield

Closest report is Haifa International Airport, 11.1 nm (20.5 km) NNE. Retrieved 2021/10/27 08:50 UTC (33 minutes ago):

LLHA 270850Z 32005KT 280V350 CAVOK 25/17 Q1017

Closest aviation forecast (TAF) to Habonim Airfield

Closest forecast is Haifa International Airport, 11.1 nm (20.5 km) NNE. Retrieved 2021/10/27 06:00 UTC (3 hours ago):

TAF LLHA 270505Z 2706/2806 VRB03KT 9999 FEW030 BECMG 2707/2709 34010KT BECMG 2718/2720 VRB03KT 9999 FEW020 TX26/2710Z TN17/2804Z